sensor_id;sensor_type;location;lat;lon;timestamp;pressure;altitude;pressure_sealevel;temperature;humidity
24558;BME280;12726;49.148;8.582;2023-05-23T00:01:54;100185.88;;;17.50;100.00
24558;BME280;12726;49.148;8.582;2023-05-23T00:04:41;100192.41;;;17.49;100.00
24558;BME280;12726;49.148;8.582;2023-05-23T00:07:27;100189.41;;;17.46;100.00
24558;BME280;12726;49.148;8.582;2023-05-23T00:10:12;100188.56;;;17.45;100.00
24558;BME280;12726;49.148;8.582;2023-05-23T00:12:57;100189.06;;;17.37;100.00
24558;BME280;12726;49.148;8.582;2023-05-23T00:15:44;100189.56;;;17.34;100.00
24558;BME280;12726;49.148;8.582;2023-05-23T00:18:29;100196.91;;;17.34;100.00
24558;BME280;12726;49.148;8.582;2023-05-23T00:21:14;100203.72;;;17.31;100.00
24558;BME280;12726;49.148;8.582;2023-05-23T00:24:01;100214.34;;;17.33;100.00
24558;BME280;12726;49.148;8.582;2023-05-23T00:26:47;100206.44;;;17.31;100.00
24558;BME280;12726;49.148;8.582;2023-05-23T00:29:32;100210.00;;;17.32;100.00
24558;BME280;12726;49.148;8.582;2023-05-23T00:32:19;100198.84;;;17.33;100.00
24558;BME280;12726;49.148;8.582;2023-05-23T00:35:06;100205.88;;;17.29;100.00
24558;BME280;12726;49.148;8.582;2023-05-23T00:37:51;100210.75;;;17.27;100.00
24558;BME280;12726;49.148;8.582;2023-05-23T00:40:37;100210.22;;;17.25;100.00
24558;BME280;12726;49.148;8.582;2023-05-23T00:43:22;100210.47;;;17.23;100.00
24558;BME280;12726;49.148;8.582;2023-05-23T00:46:09;100198.19;;;17.21;100.00
24558;BME280;12726;49.148;8.582;2023-05-23T00:48:56;100205.81;;;17.19;100.00
24558;BME280;12726;49.148;8.582;2023-05-23T00:51:42;100207.44;;;17.20;100.00
24558;BME280;12726;49.148;8.582;2023-05-23T00:54:28;100215.56;;;17.15;100.00
24558;BME280;12726;49.148;8.582;2023-05-23T00:57:14;100211.19;;;17.14;100.00
24558;BME280;12726;49.148;8.582;2023-05-23T01:00:00;100203.81;;;17.04;100.00
24558;BME280;12726;49.148;8.582;2023-05-23T01:02:48;100216.59;;;17.09;100.00
24558;BME280;12726;49.148;8.582;2023-05-23T01:05:36;100218.00;;;17.11;100.00
24558;BME280;12726;49.148;8.582;2023-05-23T01:08:21;100221.25;;;17.13;100.00
24558;BME280;12726;49.148;8.582;2023-05-23T01:11:12;100213.91;;;17.14;100.00
24558;BME280;12726;49.148;8.582;2023-05-23T01:14:06;100215.53;;;17.10;100.00
24558;BME280;12726;49.148;8.582;2023-05-23T01:16:57;100217.47;;;17.14;100.00
24558;BME280;12726;49.148;8.582;2023-05-23T01:19:58;100206.00;;;17.12;100.00
24558;BME280;12726;49.148;8.582;2023-05-23T01:26:21;100214.75;;;17.14;100.00
24558;BME280;12726;49.148;8.582;2023-05-23T01:29:18;100214.75;;;17.14;100.00
24558;BME280;12726;49.148;8.582;2023-05-23T01:32:09;100217.78;;;17.18;100.00
24558;BME280;12726;49.148;8.582;2023-05-23T01:34:56;100227.31;;;17.20;100.00
24558;BME280;12726;49.148;8.582;2023-05-23T01:37:43;100223.50;;;17.21;100.00
24558;BME280;12726;49.148;8.582;2023-05-23T01:40:29;100229.19;;;17.20;100.00
24558;BME280;12726;49.148;8.582;2023-05-23T01:43:14;100227.03;;;17.17;100.00
24558;BME280;12726;49.148;8.582;2023-05-23T01:46:02;100234.03;;;17.13;100.00
24558;BME280;12726;49.148;8.582;2023-05-23T01:48:48;100236.59;;;17.25;100.00
24558;BME280;12726;49.148;8.582;2023-05-23T01:51:35;100238.53;;;17.29;100.00
24558;BME280;12726;49.148;8.582;2023-05-23T01:54:20;100241.34;;;17.39;100.00
24558;BME280;12726;49.148;8.582;2023-05-23T01:57:06;100246.22;;;17.37;100.00
24558;BME280;12726;49.148;8.582;2023-05-23T01:59:52;100250.56;;;17.33;100.00
24558;BME280;12726;49.148;8.582;2023-05-23T02:02:38;100249.97;;;17.31;100.00
24558;BME280;12726;49.148;8.582;2023-05-23T02:05:24;100247.84;;;17.33;100.00
24558;BME280;12726;49.148;8.582;2023-05-23T02:08:10;100247.75;;;17.23;100.00
24558;BME280;12726;49.148;8.582;2023-05-23T02:10:55;100242.78;;;17.15;100.00
24558;BME280;12726;49.148;8.582;2023-05-23T02:13:41;100244.38;;;17.11;100.00
24558;BME280;12726;49.148;8.582;2023-05-23T02:16:26;100244.03;;;17.02;100.00
24558;BME280;12726;49.148;8.582;2023-05-23T02:19:12;100245.59;;;16.98;100.00
24558;BME280;12726;49.148;8.582;2023-05-23T02:21:57;100249.69;;;16.96;100.00
24558;BME280;12726;49.148;8.582;2023-05-23T02:24:43;100245.56;;;16.93;100.00
24558;BME280;12726;49.148;8.582;2023-05-23T02:27:28;100248.81;;;16.90;100.00
24558;BME280;12726;49.148;8.582;2023-05-23T02:30:14;100237.06;;;16.84;100.00
24558;BME280;12726;49.148;8.582;2023-05-23T02:33:03;100237.00;;;16.79;100.00
24558;BME280;12726;49.148;8.582;2023-05-23T02:35:50;100241.84;;;16.72;100.00
24558;BME280;12726;49.148;8.582;2023-05-23T02:38:35;100246.19;;;16.73;100.00
24558;BME280;12726;49.148;8.582;2023-05-23T02:41:21;100249.69;;;16.69;100.00
24558;BME280;12726;49.148;8.582;2023-05-23T02:44:06;100256.72;;;16.65;100.00
24558;BME280;12726;49.148;8.582;2023-05-23T02:46:52;100252.63;;;16.62;100.00
24558;BME280;12726;49.148;8.582;2023-05-23T02:49:37;100264.03;;;16.64;100.00
24558;BME280;12726;49.148;8.582;2023-05-23T02:52:24;100254.25;;;16.63;100.00
24558;BME280;12726;49.148;8.582;2023-05-23T02:55:09;100256.41;;;16.61;100.00
24558;BME280;12726;49.148;8.582;2023-05-23T02:57:55;100261.50;;;16.58;100.00
24558;BME280;12726;49.148;8.582;2023-05-23T03:00:41;100260.63;;;16.52;100.00
24558;BME280;12726;49.148;8.582;2023-05-23T03:03:27;100251.91;;;16.50;100.00
24558;BME280;12726;49.148;8.582;2023-05-23T03:06:14;100263.59;;;16.51;100.00
24558;BME280;12726;49.148;8.582;2023-05-23T03:09:01;100263.59;;;16.51;100.00
24558;BME280;12726;49.148;8.582;2023-05-23T03:11:46;100252.16;;;16.49;100.00
24558;BME280;12726;49.148;8.582;2023-05-23T03:14:32;100260.03;;;16.50;100.00
24558;BME280;12726;49.148;8.582;2023-05-23T03:17:17;100253.53;;;16.51;100.00
24558;BME280;12726;49.148;8.582;2023-05-23T03:20:03;100263.91;;;16.54;100.00
24558;BME280;12726;49.148;8.582;2023-05-23T03:22:52;100266.94;;;16.58;100.00
24558;BME280;12726;49.148;8.582;2023-05-23T03:25:39;100264.47;;;16.56;100.00
24558;BME280;12726;49.148;8.582;2023-05-23T03:28:24;100268.28;;;16.55;100.00
24558;BME280;12726;49.148;8.582;2023-05-23T03:31:09;100268.53;;;16.54;100.00
24558;BME280;12726;49.148;8.582;2023-05-23T03:33:54;100279.41;;;16.54;100.00
24558;BME280;12726;49.148;8.582;2023-05-23T03:36:40;100271.00;;;16.55;100.00
24558;BME280;12726;49.148;8.582;2023-05-23T03:39:25;100275.31;;;16.56;100.00
24558;BME280;12726;49.148;8.582;2023-05-23T03:42:12;100285.50;;;16.61;100.00
24558;BME280;12726;49.148;8.582;2023-05-23T03:44:57;100285.78;;;16.64;100.00
24558;BME280;12726;49.148;8.582;2023-05-23T03:47:42;100288.50;;;16.64;100.00
24558;BME280;12726;49.148;8.582;2023-05-23T03:50:28;100280.34;;;16.64;100.00
24558;BME280;12726;49.148;8.582;2023-05-23T03:53:13;100281.41;;;16.63;100.00
24558;BME280;12726;49.148;8.582;2023-05-23T03:55:59;100284.13;;;16.63;100.00
24558;BME280;12726;49.148;8.582;2023-05-23T03:58:45;100293.94;;;16.64;100.00
24558;BME280;12726;49.148;8.582;2023-05-23T04:01:31;100299.13;;;16.66;100.00
24558;BME280;12726;49.148;8.582;2023-05-23T04:04:17;100305.38;;;16.66;100.00
24558;BME280;12726;49.148;8.582;2023-05-23T04:07:04;100294.25;;;16.68;100.00
24558;BME280;12726;49.148;8.582;2023-05-23T04:09:49;100300.00;;;16.71;100.00
24558;BME280;12726;49.148;8.582;2023-05-23T04:12:34;100308.47;;;16.75;100.00
24558;BME280;12726;49.148;8.582;2023-05-23T04:15:21;100301.41;;;16.74;100.00
24558;BME280;12726;49.148;8.582;2023-05-23T04:18:07;100305.75;;;16.75;100.00
24558;BME280;12726;49.148;8.582;2023-05-23T04:20:53;100303.88;;;16.75;100.00
24558;BME280;12726;49.148;8.582;2023-05-23T04:23:38;100308.78;;;16.78;100.00
24558;BME280;12726;49.148;8.582;2023-05-23T04:26:24;100294.94;;;16.80;100.00
24558;BME280;12726;49.148;8.582;2023-05-23T04:29:09;100310.47;;;16.84;100.00
24558;BME280;12726;49.148;8.582;2023-05-23T04:31:56;100321.91;;;16.87;100.00
24558;BME280;12726;49.148;8.582;2023-05-23T04:34:41;100311.66;;;16.94;100.00
24558;BME280;12726;49.148;8.582;2023-05-23T04:37:27;100315.53;;;16.98;99.56
24558;BME280;12726;49.148;8.582;2023-05-23T04:40:12;100317.97;;;16.99;97.75
24558;BME280;12726;49.148;8.582;2023-05-23T04:42:58;100320.75;;;17.04;97.84
24558;BME280;12726;49.148;8.582;2023-05-23T04:45:44;100319.16;;;17.08;96.94
24558;BME280;12726;49.148;8.582;2023-05-23T04:48:31;100325.16;;;17.10;96.01
24558;BME280;12726;49.148;8.582;2023-05-23T04:51:17;100327.94;;;17.15;94.84
24558;BME280;12726;49.148;8.582;2023-05-23T04:54:04;100331.44;;;17.11;94.13
24558;BME280;12726;49.148;8.582;2023-05-23T04:56:50;100328.72;;;17.11;94.22
24558;BME280;12726;49.148;8.582;2023-05-23T04:59:35;100336.91;;;17.16;93.59
24558;BME280;12726;49.148;8.582;2023-05-23T05:02:21;100335.50;;;17.13;94.07
24558;BME280;12726;49.148;8.582;2023-05-23T05:05:08;100336.34;;;17.14;93.64
24558;BME280;12726;49.148;8.582;2023-05-23T05:07:54;100337.72;;;17.16;92.23
24558;BME280;12726;49.148;8.582;2023-05-23T05:10:40;100346.75;;;17.22;91.37
24558;BME280;12726;49.148;8.582;2023-05-23T05:13:25;100343.53;;;17.25;91.24
24558;BME280;12726;49.148;8.582;2023-05-23T05:16:10;100348.75;;;17.32;90.71
24558;BME280;12726;49.148;8.582;2023-05-23T05:18:56;100347.97;;;17.36;90.29
24558;BME280;12726;49.148;8.582;2023-05-23T05:21:42;100349.19;;;17.50;89.90
24558;BME280;12726;49.148;8.582;2023-05-23T05:24:28;100362.56;;;17.52;88.06
24558;BME280;12726;49.148;8.582;2023-05-23T05:27:13;100361.75;;;17.56;87.54
24558;BME280;12726;49.148;8.582;2023-05-23T05:29:59;100368.16;;;17.67;86.14
24558;BME280;12726;49.148;8.582;2023-05-23T05:32:47;100360.84;;;17.73;85.68
24558;BME280;12726;49.148;8.582;2023-05-23T05:35:33;100369.03;;;17.78;84.17
24558;BME280;12726;49.148;8.582;2023-05-23T05:38:20;100361.22;;;17.86;84.02
24558;BME280;12726;49.148;8.582;2023-05-23T05:41:05;100368.41;;;18.03;82.88
24558;BME280;12726;49.148;8.582;2023-05-23T05:43:51;100376.59;;;18.03;82.64
24558;BME280;12726;49.148;8.582;2023-05-23T05:46:36;100375.06;;;18.17;81.78
24558;BME280;12726;49.148;8.582;2023-05-23T05:49:21;100387.06;;;18.21;80.73
24558;BME280;12726;49.148;8.582;2023-05-23T05:52:07;100391.75;;;18.25;80.58
24558;BME280;12726;49.148;8.582;2023-05-23T05:54:54;100392.00;;;18.29;79.54
24558;BME280;12726;49.148;8.582;2023-05-23T05:57:40;100399.69;;;18.37;78.72
24558;BME280;12726;49.148;8.582;2023-05-23T06:00:26;100401.84;;;18.35;78.76
24558;BME280;12726;49.148;8.582;2023-05-23T06:03:12;100404.66;;;18.45;77.84
24558;BME280;12726;49.148;8.582;2023-05-23T06:05:57;100412.03;;;18.50;77.79
24558;BME280;12726;49.148;8.582;2023-05-23T06:08:42;100410.94;;;18.46;76.83
24558;BME280;12726;49.148;8.582;2023-05-23T06:11:29;100416.28;;;18.30;77.49
24558;BME280;12726;49.148;8.582;2023-05-23T06:14:15;100411.09;;;18.29;77.11
24558;BME280;12726;49.148;8.582;2023-05-23T06:17:01;100421.53;;;18.05;76.55
24558;BME280;12726;49.148;8.582;2023-05-23T06:19:47;100424.38;;;17.83;77.48
24558;BME280;12726;49.148;8.582;2023-05-23T06:22:32;100422.78;;;17.60;78.74
24558;BME280;12726;49.148;8.582;2023-05-23T06:25:17;100422.47;;;17.57;77.82
24558;BME280;12726;49.148;8.582;2023-05-23T06:28:04;100433.91;;;17.54;78.85
24558;BME280;12726;49.148;8.582;2023-05-23T06:30:49;100435.72;;;17.48;78.92
24558;BME280;12726;49.148;8.582;2023-05-23T06:33:35;100441.44;;;17.47;78.61
24558;BME280;12726;49.148;8.582;2023-05-23T06:36:20;100441.75;;;17.50;79.02
24558;BME280;12726;49.148;8.582;2023-05-23T06:39:06;100447.28;;;17.60;78.30
24558;BME280;12726;49.148;8.582;2023-05-23T06:41:53;100448.16;;;17.61;78.16
24558;BME280;12726;49.148;8.582;2023-05-23T06:44:40;100450.66;;;17.68;77.36
24558;BME280;12726;49.148;8.582;2023-05-23T06:47:25;100445.75;;;17.70;77.95
24558;BME280;12726;49.148;8.582;2023-05-23T06:50:11;100453.44;;;17.73;76.89
24558;BME280;12726;49.148;8.582;2023-05-23T06:52:56;100448.84;;;17.78;76.56
24558;BME280;12726;49.148;8.582;2023-05-23T06:55:41;100450.28;;;17.86;76.55
24558;BME280;12726;49.148;8.582;2023-05-23T06:58:27;100462.50;;;17.83;76.17
24558;BME280;12726;49.148;8.582;2023-05-23T07:01:14;100467.22;;;17.93;75.76
24558;BME280;12726;49.148;8.582;2023-05-23T07:03:59;100462.03;;;17.91;76.57
24558;BME280;12726;49.148;8.582;2023-05-23T07:06:44;100468.22;;;18.14;75.50
24558;BME280;12726;49.148;8.582;2023-05-23T07:09:29;100472.56;;;18.15;75.61
24558;BME280;12726;49.148;8.582;2023-05-23T07:12:15;100478.28;;;18.13;74.77
24558;BME280;12726;49.148;8.582;2023-05-23T07:15:00;100470.75;;;18.25;75.13
24558;BME280;12726;49.148;8.582;2023-05-23T07:17:47;100474.50;;;18.19;74.81
24558;BME280;12726;49.148;8.582;2023-05-23T07:20:32;100485.13;;;18.16;74.67
24558;BME280;12726;49.148;8.582;2023-05-23T07:23:18;100479.31;;;18.07;74.90
24558;BME280;12726;49.148;8.582;2023-05-23T07:26:03;100493.47;;;18.04;74.87
24558;BME280;12726;49.148;8.582;2023-05-23T07:28:48;100493.75;;;18.03;74.96
24558;BME280;12726;49.148;8.582;2023-05-23T07:31:34;100490.16;;;17.97;75.28
24558;BME280;12726;49.148;8.582;2023-05-23T07:34:20;100493.53;;;18.09;75.08
24558;BME280;12726;49.148;8.582;2023-05-23T07:37:05;100501.25;;;18.22;73.62
24558;BME280;12726;49.148;8.582;2023-05-23T07:39:50;100501.84;;;18.29;73.21
24558;BME280;12726;49.148;8.582;2023-05-23T07:42:36;100499.22;;;18.39;72.49
24558;BME280;12726;49.148;8.582;2023-05-23T07:45:21;100494.28;;;18.36;72.82
24558;BME280;12726;49.148;8.582;2023-05-23T07:48:07;100495.94;;;18.37;72.30
24558;BME280;12726;49.148;8.582;2023-05-23T07:50:54;100504.97;;;18.48;71.58
24558;BME280;12726;49.148;8.582;2023-05-23T07:53:40;100504.81;;;18.23;72.11
24558;BME280;12726;49.148;8.582;2023-05-23T07:56:25;100502.81;;;18.13;72.43
24558;BME280;12726;49.148;8.582;2023-05-23T07:59:10;100505.06;;;18.21;72.90
24558;BME280;12726;49.148;8.582;2023-05-23T08:01:56;100503.94;;;18.17;71.91
24558;BME280;12726;49.148;8.582;2023-05-23T08:04:42;100505.88;;;18.22;72.40
24558;BME280;12726;49.148;8.582;2023-05-23T08:07:29;100508.94;;;18.30;71.75
24558;BME280;12726;49.148;8.582;2023-05-23T08:10:14;100508.75;;;18.42;70.77
24558;BME280;12726;49.148;8.582;2023-05-23T08:13:00;100512.63;;;18.46;71.51
24558;BME280;12726;49.148;8.582;2023-05-23T08:15:49;100513.47;;;18.52;70.56
24558;BME280;12726;49.148;8.582;2023-05-23T08:18:35;100511.00;;;18.50;70.42
24558;BME280;12726;49.148;8.582;2023-05-23T08:21:20;100513.88;;;18.70;69.44
24558;BME280;12726;49.148;8.582;2023-05-23T08:24:07;100509.34;;;18.86;68.23
24558;BME280;12726;49.148;8.582;2023-05-23T08:26:52;100514.63;;;19.03;68.65
24558;BME280;12726;49.148;8.582;2023-05-23T08:29:37;100512.75;;;19.08;67.74
24558;BME280;12726;49.148;8.582;2023-05-23T08:32:24;100520.66;;;19.10;67.33
24558;BME280;12726;49.148;8.582;2023-05-23T08:35:09;100519.09;;;19.24;67.83
24558;BME280;12726;49.148;8.582;2023-05-23T08:37:54;100524.56;;;19.24;67.58
24558;BME280;12726;49.148;8.582;2023-05-23T08:40:44;100534.06;;;19.16;67.21
24558;BME280;12726;49.148;8.582;2023-05-23T08:43:33;100527.13;;;18.94;68.21
24558;BME280;12726;49.148;8.582;2023-05-23T08:46:18;100529.53;;;18.85;68.56
24558;BME280;12726;49.148;8.582;2023-05-23T08:49:04;100523.00;;;18.86;69.04
24558;BME280;12726;49.148;8.582;2023-05-23T08:51:51;100532.28;;;18.90;68.87
24558;BME280;12726;49.148;8.582;2023-05-23T08:54:41;100531.47;;;18.90;68.52
24558;BME280;12726;49.148;8.582;2023-05-23T08:57:28;100524.50;;;19.19;67.87
24558;BME280;12726;49.148;8.582;2023-05-23T09:00:14;100527.22;;;19.14;66.84
24558;BME280;12726;49.148;8.582;2023-05-23T09:02:59;100529.75;;;19.31;65.41
24558;BME280;12726;49.148;8.582;2023-05-23T09:05:45;100532.50;;;19.31;65.13
24558;BME280;12726;49.148;8.582;2023-05-23T09:08:31;100529.59;;;19.52;64.07
24558;BME280;12726;49.148;8.582;2023-05-23T09:11:17;100531.00;;;19.65;63.52
24558;BME280;12726;49.148;8.582;2023-05-23T09:14:06;100540.88;;;19.86;62.79
24558;BME280;12726;49.148;8.582;2023-05-23T09:16:51;100529.72;;;20.28;60.32
24558;BME280;12726;49.148;8.582;2023-05-23T09:19:40;100531.94;;;20.42;60.03
24558;BME280;12726;49.148;8.582;2023-05-23T09:22:26;100533.53;;;20.63;58.75
24558;BME280;12726;49.148;8.582;2023-05-23T09:25:12;100534.59;;;20.82;58.80
24558;BME280;12726;49.148;8.582;2023-05-23T09:27:57;100531.66;;;20.43;58.33
24558;BME280;12726;49.148;8.582;2023-05-23T09:30:45;100529.97;;;20.27;59.43
24558;BME280;12726;49.148;8.582;2023-05-23T09:33:39;100539.84;;;20.63;58.89
24558;BME280;12726;49.148;8.582;2023-05-23T09:36:27;100547.22;;;20.68;57.78
24558;BME280;12726;49.148;8.582;2023-05-23T09:39:13;100536.56;;;20.66;58.53
24558;BME280;12726;49.148;8.582;2023-05-23T09:41:59;100545.88;;;20.65;58.43
24558;BME280;12726;49.148;8.582;2023-05-23T09:44:45;100541.47;;;20.69;58.48
24558;BME280;12726;49.148;8.582;2023-05-23T09:47:32;100540.66;;;20.74;58.03
24558;BME280;12726;49.148;8.582;2023-05-23T09:50:17;100539.81;;;20.68;58.38
24558;BME280;12726;49.148;8.582;2023-05-23T09:53:03;100544.13;;;21.10;56.72
24558;BME280;12726;49.148;8.582;2023-05-23T09:55:49;100534.53;;;21.23;56.39
24558;BME280;12726;49.148;8.582;2023-05-23T09:58:35;100547.66;;;21.21;56.41
24558;BME280;12726;49.148;8.582;2023-05-23T10:01:24;100536.44;;;21.22;55.08
24558;BME280;12726;49.148;8.582;2023-05-23T10:04:13;100542.00;;;21.66;55.70
24558;BME280;12726;49.148;8.582;2023-05-23T10:07:04;100539.38;;;21.90;54.20
24558;BME280;12726;49.148;8.582;2023-05-23T10:09:55;100539.34;;;22.34;53.98
24558;BME280;12726;49.148;8.582;2023-05-23T10:12:46;100535.38;;;23.08;51.52
24558;BME280;12726;49.148;8.582;2023-05-23T10:15:37;100540.25;;;22.87;50.11
24558;BME280;12726;49.148;8.582;2023-05-23T10:18:25;100529.88;;;23.08;48.54
24558;BME280;12726;49.148;8.582;2023-05-23T10:21:18;100542.28;;;23.91;46.41
24558;BME280;12726;49.148;8.582;2023-05-23T10:24:07;100532.41;;;23.47;46.36
24558;BME280;12726;49.148;8.582;2023-05-23T10:26:53;100536.97;;;23.33;47.19
24558;BME280;12726;49.148;8.582;2023-05-23T10:29:38;100542.00;;;23.02;47.59
24558;BME280;12726;49.148;8.582;2023-05-23T10:32:25;100537.53;;;22.87;48.52
24558;BME280;12726;49.148;8.582;2023-05-23T10:35:16;100540.28;;;22.53;48.77
24558;BME280;12726;49.148;8.582;2023-05-23T10:38:11;100524.59;;;22.59;49.89
24558;BME280;12726;49.148;8.582;2023-05-23T10:41:07;100534.94;;;22.67;49.75
24558;BME280;12726;49.148;8.582;2023-05-23T10:43:59;100526.88;;;22.47;49.71
24558;BME280;12726;49.148;8.582;2023-05-23T10:46:50;100533.41;;;22.56;49.77
24558;BME280;12726;49.148;8.582;2023-05-23T10:49:37;100528.06;;;22.70;50.50
24558;BME280;12726;49.148;8.582;2023-05-23T10:52:23;100534.94;;;22.96;51.03
24558;BME280;12726;49.148;8.582;2023-05-23T10:55:15;100533.41;;;22.85;49.46
24558;BME280;12726;49.148;8.582;2023-05-23T10:58:14;100534.53;;;22.84;51.36
24558;BME280;12726;49.148;8.582;2023-05-23T11:01:01;100539.44;;;22.87;50.58
24558;BME280;12726;49.148;8.582;2023-05-23T11:03:50;100530.16;;;22.49;49.26
24558;BME280;12726;49.148;8.582;2023-05-23T11:06:38;100529.16;;;22.06;51.67
24558;BME280;12726;49.148;8.582;2023-05-23T11:09:24;100534.16;;;21.44;52.39
24558;BME280;12726;49.148;8.582;2023-05-23T11:12:11;100532.91;;;22.49;51.82
24558;BME280;12726;49.148;8.582;2023-05-23T11:14:56;100532.06;;;23.54;48.62
24558;BME280;12726;49.148;8.582;2023-05-23T11:17:49;100532.09;;;23.72;49.30
24558;BME280;12726;49.148;8.582;2023-05-23T11:20:36;100540.88;;;23.93;48.29
24558;BME280;12726;49.148;8.582;2023-05-23T11:23:22;100538.16;;;23.88;46.28
24558;BME280;12726;49.148;8.582;2023-05-23T11:26:29;100535.09;;;23.52;46.93
24558;BME280;12726;49.148;8.582;2023-05-23T11:29:16;100530.34;;;23.15;48.72
24558;BME280;12726;49.148;8.582;2023-05-23T11:32:09;100530.47;;;22.76;49.66
24558;BME280;12726;49.148;8.582;2023-05-23T11:34:54;100534.91;;;22.09;52.10
24558;BME280;12726;49.148;8.582;2023-05-23T11:37:40;100530.03;;;21.96;53.32
24558;BME280;12726;49.148;8.582;2023-05-23T11:40:27;100531.19;;;21.85;54.42
24558;BME280;12726;49.148;8.582;2023-05-23T11:43:13;100535.25;;;21.93;53.92
24558;BME280;12726;49.148;8.582;2023-05-23T11:46:08;100531.69;;;21.92;53.47
24558;BME280;12726;49.148;8.582;2023-05-23T11:48:53;100528.03;;;21.63;54.22
24558;BME280;12726;49.148;8.582;2023-05-23T11:51:38;100538.81;;;21.44;53.60
24558;BME280;12726;49.148;8.582;2023-05-23T11:54:24;100526.97;;;21.54;53.99
24558;BME280;12726;49.148;8.582;2023-05-23T11:57:10;100519.53;;;21.64;54.62
24558;BME280;12726;49.148;8.582;2023-05-23T11:59:57;100521.81;;;21.91;54.19
24558;BME280;12726;49.148;8.582;2023-05-23T12:02:44;100523.41;;;21.53;54.42
24558;BME280;12726;49.148;8.582;2023-05-23T12:05:30;100530.03;;;21.52;54.85
24558;BME280;12726;49.148;8.582;2023-05-23T12:08:15;100530.41;;;21.15;55.80
24558;BME280;12726;49.148;8.582;2023-05-23T12:11:01;100537.25;;;21.23;55.40
24558;BME280;12726;49.148;8.582;2023-05-23T12:13:46;100529.59;;;21.15;54.28
24558;BME280;12726;49.148;8.582;2023-05-23T12:16:32;100532.38;;;20.99;54.96
24558;BME280;12726;49.148;8.582;2023-05-23T12:19:19;100527.44;;;21.17;54.14
24558;BME280;12726;49.148;8.582;2023-05-23T12:22:05;100523.88;;;21.16;54.22
24558;BME280;12726;49.148;8.582;2023-05-23T12:24:52;100526.38;;;21.62;53.34
24558;BME280;12726;49.148;8.582;2023-05-23T12:27:39;100521.38;;;21.79;52.68
24558;BME280;12726;49.148;8.582;2023-05-23T12:30:25;100523.66;;;22.06;52.75
24558;BME280;12726;49.148;8.582;2023-05-23T12:33:10;100519.88;;;22.36;52.20
24558;BME280;12726;49.148;8.582;2023-05-23T12:35:57;100521.50;;;22.37;52.36
24558;BME280;12726;49.148;8.582;2023-05-23T12:38:43;100518.69;;;22.13;52.07
24558;BME280;12726;49.148;8.582;2023-05-23T12:41:31;100525.06;;;22.03;52.58
24558;BME280;12726;49.148;8.582;2023-05-23T12:44:16;100519.50;;;21.69;52.16
24558;BME280;12726;49.148;8.582;2023-05-23T12:47:02;100516.25;;;21.62;53.06
24558;BME280;12726;49.148;8.582;2023-05-23T12:49:47;100518.69;;;21.69;52.27
24558;BME280;12726;49.148;8.582;2023-05-23T12:52:34;100518.75;;;22.03;52.33
24558;BME280;12726;49.148;8.582;2023-05-23T12:55:20;100516.75;;;22.47;51.81
24558;BME280;12726;49.148;8.582;2023-05-23T12:58:05;100516.13;;;22.55;50.69
24558;BME280;12726;49.148;8.582;2023-05-23T13:00:51;100502.75;;;22.49;50.08
24558;BME280;12726;49.148;8.582;2023-05-23T13:03:36;100513.75;;;22.44;49.46
24558;BME280;12726;49.148;8.582;2023-05-23T13:06:21;100515.34;;;22.50;49.13
24558;BME280;12726;49.148;8.582;2023-05-23T13:09:08;100502.78;;;22.10;50.35
24558;BME280;12726;49.148;8.582;2023-05-23T13:11:53;100508.63;;;22.66;48.32
24558;BME280;12726;49.148;8.582;2023-05-23T13:14:38;100501.25;;;23.33;48.01
24558;BME280;12726;49.148;8.582;2023-05-23T13:17:24;100495.69;;;23.38;48.15
24558;BME280;12726;49.148;8.582;2023-05-23T13:20:10;100505.09;;;23.13;48.61
24558;BME280;12726;49.148;8.582;2023-05-23T13:22:57;100504.63;;;22.82;49.94
24558;BME280;12726;49.148;8.582;2023-05-23T13:25:44;100511.81;;;22.78;49.98
24558;BME280;12726;49.148;8.582;2023-05-23T13:28:29;100508.84;;;22.41;51.37
24558;BME280;12726;49.148;8.582;2023-05-23T13:31:15;100503.28;;;22.17;50.85
24558;BME280;12726;49.148;8.582;2023-05-23T13:34:00;100504.97;;;21.69;51.79
24558;BME280;12726;49.148;8.582;2023-05-23T13:36:46;100496.56;;;21.55;52.46
24558;BME280;12726;49.148;8.582;2023-05-23T13:39:31;100502.97;;;21.35;52.84
24558;BME280;12726;49.148;8.582;2023-05-23T13:42:18;100500.81;;;21.27;53.76
24558;BME280;12726;49.148;8.582;2023-05-23T13:45:03;100498.53;;;21.49;53.78
24558;BME280;12726;49.148;8.582;2023-05-23T13:47:49;100494.56;;;21.71;54.13
24558;BME280;12726;49.148;8.582;2023-05-23T13:50:35;100494.81;;;22.13;53.18
24558;BME280;12726;49.148;8.582;2023-05-23T13:53:20;100506.03;;;22.17;51.24
24558;BME280;12726;49.148;8.582;2023-05-23T13:56:06;100501.50;;;22.31;51.31
24558;BME280;12726;49.148;8.582;2023-05-23T13:58:53;100497.44;;;22.29;51.54
24558;BME280;12726;49.148;8.582;2023-05-23T14:01:38;100500.66;;;22.36;51.54
24558;BME280;12726;49.148;8.582;2023-05-23T14:04:23;100501.50;;;22.60;50.94
24558;BME280;12726;49.148;8.582;2023-05-23T14:07:09;100488.59;;;22.89;50.59
24558;BME280;12726;49.148;8.582;2023-05-23T14:09:54;100504.72;;;22.96;50.31
24558;BME280;12726;49.148;8.582;2023-05-23T14:12:40;100503.88;;;22.72;49.95
24558;BME280;12726;49.148;8.582;2023-05-23T14:15:27;100497.31;;;22.44;50.10
24558;BME280;12726;49.148;8.582;2023-05-23T14:18:12;100500.03;;;22.15;49.96
24558;BME280;12726;49.148;8.582;2023-05-23T14:20:57;100501.13;;;22.14;50.07
24558;BME280;12726;49.148;8.582;2023-05-23T14:23:42;100499.25;;;22.38;50.89
24558;BME280;12726;49.148;8.582;2023-05-23T14:26:28;100496.19;;;22.11;51.13
24558;BME280;12726;49.148;8.582;2023-05-23T14:29:13;100497.34;;;22.05;51.83
24558;BME280;12726;49.148;8.582;2023-05-23T14:32:00;100489.44;;;22.32;50.03